Pinckney, Michigan
Current Conditions -  °F | °C
As of 4:54 AM on Sunday 23 Nov 2014 (Local Time) from KOZW Reporting Station
Overcast Overcast  
Wind Chill: 45°   Ceiling: 2200
Heat Index: 49°   Visibility: 10mi
Dew Point: 44°   Wind: 9mph
Humidity: 82%   Direction: 200°SSW
Pressure: 29.89"   Gusts: NA
Location:  42.46°N, 83.95°W
Report Text: KOZW 230954Z AUTO 20008KT 10SM OVC022 10/07 A2989 RMK AO2 T00950066
Loading
Personal Weather Stations






























Interactive Weather Map New forecast layout! Learn more

10-Day Weather Forecast

Advertisements
Track Severe Weather on mobile